Time;durP1;ratioP1;P1;durP2;ratioP2;P2;SDS_P1;SDS_P2;PMS_P1;PMS_P2;Temp;Humidity;BMP_temperature;BMP_pressure;BME280_temperature;BME280_humidity;BME280_pressure;Samples;Min_cycle;Max_cycle;Signal;HPM_P1;HPM_P2
2022/07/14 00:01:51;;;;;;;;;;;23.80;72.90;;;;;;5043464;28;20660;-74
2022/07/14 00:04:18;;;;;;;;;;;23.80;72.90;;;;;;5047133;28;19928;-78
2022/07/14 00:06:46;;;;;;;;;;;23.80;72.80;;;;;;5054290;28;19928;-78
2022/07/14 00:09:13;;;;;;;;;;;23.80;72.80;;;;;;5042908;28;20041;-77
2022/07/14 00:11:40;;;;;;;;;;;23.70;72.80;;;;;;5041467;28;19932;-77
2022/07/14 00:14:07;;;;;;;;;;;23.70;72.90;;;;;;5045033;28;19932;-75
2022/07/14 00:16:33;;;;;;;;;;;23.70;72.90;;;;;;5043315;28;19924;-75
2022/07/14 00:19:00;;;;;;;;;;;23.60;72.90;;;;;;5048343;28;19933;-75
2022/07/14 00:21:27;;;;;;;;;;;23.60;73.00;;;;;;5046680;28;19925;-74
2022/07/14 00:23:55;;;;;;;;;;;23.60;73.20;;;;;;5053841;28;20302;-75
2022/07/14 00:26:22;;;;;;;;;;;23.60;73.30;;;;;;5038569;28;20030;-75
2022/07/14 00:28:49;;;;;;;;;;;23.60;73.30;;;;;;5049960;28;19978;-74
2022/07/14 00:31:16;;;;;;;;;;;23.50;73.40;;;;;;5038053;28;19936;-75
2022/07/14 00:33:43;;;;;;;;;;;23.50;73.50;;;;;;5046593;28;19924;-75
2022/07/14 00:36:10;;;;;;;;;;;23.50;73.50;;;;;;5044683;28;19924;-75
2022/07/14 00:38:36;;;;;;;;;;;23.50;73.50;;;;;;5063556;28;19925;-75
2022/07/14 00:41:05;;;;;;;;;;;23.50;73.90;;;;;;5039872;28;19985;-74
2022/07/14 00:43:32;;;;;;;;;;;23.40;73.50;;;;;;5039497;28;19987;-76
2022/07/14 00:46:00;;;;;;;;;;;23.40;73.60;;;;;;5041896;28;20413;-74
2022/07/14 00:48:27;;;;;;;;;;;23.40;73.60;;;;;;5059430;28;19925;-75
2022/07/14 00:50:54;;;;;;;;;;;23.40;73.60;;;;;;5044999;28;20387;-74
2022/07/14 00:53:21;;;;;;;;;;;23.40;73.60;;;;;;5049789;28;19951;-75
2022/07/14 00:55:48;;;;;;;;;;;23.30;73.50;;;;;;5058510;28;20023;-75
2022/07/14 00:58:16;;;;;;;;;;;23.30;73.40;;;;;;5048998;28;19978;-74
2022/07/14 01:00:44;;;;;;;;;;;23.30;73.20;;;;;;5042210;28;20032;-75
2022/07/14 01:03:11;;;;;;;;;;;23.30;73.20;;;;;;5050240;28;19982;-75
2022/07/14 01:05:38;;;;;;;;;;;23.20;73.10;;;;;;5051630;28;20016;-75
2022/07/14 01:08:06;;;;;;;;;;;23.20;73.10;;;;;;5044536;28;19924;-75
2022/07/14 01:10:32;;;;;;;;;;;23.20;73.10;;;;;;5045061;28;20454;-75
2022/07/14 01:13:00;;;;;;;;;;;23.20;73.10;;;;;;5039021;28;19964;-75
2022/07/14 01:15:29;;;;;;;;;;;23.20;73.20;;;;;;5047551;28;19976;-75
2022/07/14 01:17:55;;;;;;;;;;;23.10;73.10;;;;;;5039551;28;19924;-75
2022/07/14 01:20:23;;;;;;;;;;;23.10;73.10;;;;;;5050459;28;20071;-75
2022/07/14 01:22:52;;;;;;;;;;;23.10;73.20;;;;;;5058626;28;19928;-75
2022/07/14 01:25:19;;;;;;;;;;;23.10;73.20;;;;;;5039239;28;19955;-75
2022/07/14 01:27:46;;;;;;;;;;;23.10;73.20;;;;;;5037713;28;19924;-75
2022/07/14 01:30:13;;;;;;;;;;;23.00;73.00;;;;;;5039941;28;19924;-74
2022/07/14 01:32:40;;;;;;;;;;;23.00;73.00;;;;;;5043730;28;19932;-74
2022/07/14 01:35:08;;;;;;;;;;;23.00;73.00;;;;;;5042859;28;21458;-75
2022/07/14 01:37:35;;;;;;;;;;;23.00;73.00;;;;;;5045253;28;19928;-75
2022/07/14 01:40:04;;;;;;;;;;;22.90;72.90;;;;;;5040953;28;20020;-75
2022/07/14 01:42:31;;;;;;;;;;;22.90;72.90;;;;;;5045066;28;19932;-75
2022/07/14 01:44:58;;;;;;;;;;;22.90;72.90;;;;;;5043687;28;19929;-75
2022/07/14 01:47:26;;;;;;;;;;;22.90;72.70;;;;;;5043484;28;19925;-75
2022/07/14 01:49:53;;;;;;;;;;;22.80;72.60;;;;;;5052180;22;19933;-74
2022/07/14 01:52:20;;;;;;;;;;;22.80;72.60;;;;;;5027688;28;20433;-75
2022/07/14 01:54:47;;;;;;;;;;;22.80;72.60;;;;;;5026171;28;19932;-75
2022/07/14 01:57:15;;;;;;;;;;;22.80;72.50;;;;;;5038874;28;19987;-75
2022/07/14 01:59:44;;;;;;;;;;;22.70;72.30;;;;;;5036801;28;20403;-75
2022/07/14 02:02:12;;;;;;;;;;;22.70;72.20;;;;;;5024785;28;19976;-75
2022/07/14 02:04:39;;;;;;;;;;;22.70;72.30;;;;;;5024775;28;20369;-75
2022/07/14 02:07:07;;;;;;;;;;;22.70;72.20;;;;;;5026526;28;19929;-75
2022/07/14 02:12:33;;;;;;;;;;;22.60;72.20;;;;;;5036935;28;19921;-74
2022/07/14 02:15:01;;;;;;;;;;;;;;;;;;5035267;28;20003;-75
2022/07/14 02:17:28;;;;;;;;;;;22.60;71.50;;;;;;5022567;28;20425;-75
2022/07/14 02:19:57;;;;;;;;;;;22.60;72.00;;;;;;5022455;28;19968;-74
2022/07/14 02:22:24;;;;;;;;;;;22.50;71.90;;;;;;5025346;28;19968;-75
2022/07/14 02:24:51;;;;;;;;;;;22.50;71.90;;;;;;5040725;28;19925;-75
2022/07/14 02:27:18;;;;;;;;;;;22.50;71.90;;;;;;5020874;28;20418;-75
2022/07/14 02:29:47;;;;;;;;;;;22.50;72.00;;;;;;5033549;28;19933;-74
2022/07/14 02:32:13;;;;;;;;;;;22.40;72.00;;;;;;5025804;28;19931;-75
2022/07/14 02:34:40;;;;;;;;;;;22.40;72.00;;;;;;5024849;28;19979;-75
2022/07/14 02:37:07;;;;;;;;;;;22.40;72.20;;;;;;5041312;28;20290;-75
2022/07/14 02:39:34;;;;;;;;;;;22.40;72.30;;;;;;5027829;28;19933;-74
2022/07/14 02:42:01;;;;;;;;;;;22.40;72.30;;;;;;5024268;28;19925;-73
2022/07/14 02:44:28;;;;;;;;;;;22.40;72.40;;;;;;5029325;28;19929;-73
2022/07/14 02:46:57;;;;;;;;;;;22.40;72.40;;;;;;5027433;28;19935;-73
2022/07/14 02:49:25;;;;;;;;;;;22.40;72.50;;;;;;5027549;28;20308;-74
2022/07/14 02:51:52;;;;;;;;;;;22.30;72.50;;;;;;5035011;28;20396;-73
2022/07/14 02:54:19;;;;;;;;;;;22.30;72.60;;;;;;5027296;28;19932;-73
2022/07/14 02:56:47;;;;;;;;;;;22.30;72.60;;;;;;5023943;28;19925;-73
2022/07/14 02:59:14;;;;;;;;;;;22.20;72.70;;;;;;5028234;28;19975;-73
2022/07/14 03:01:45;;;;;;;;;;;22.20;72.70;;;;;;5026065;28;20324;-74
2022/07/14 03:04:19;;;;;;;;;;;22.20;72.70;;;;;;5031808;28;19925;-73
2022/07/14 03:06:47;;;;;;;;;;;22.20;72.70;;;;;;5026622;28;19929;-73
2022/07/14 03:09:17;;;;;;;;;;;22.20;72.70;;;;;;5033429;28;19974;-73
2022/07/14 03:11:44;;;;;;;;;;;22.10;72.60;;;;;;5025289;28;20342;-73
2022/07/14 03:14:11;;;;;;;;;;;22.10;72.60;;;;;;5031124;28;19995;-73
2022/07/14 03:16:37;;;;;;;;;;;22.10;72.60;;;;;;5023799;28;19940;-73
2022/07/14 03:19:08;;;;;;;;;;;22.10;72.60;;;;;;5025408;28;20032;-72
2022/07/14 03:21:36;;;;;;;;;;;22.10;72.60;;;;;;5037982;28;19925;-73
2022/07/14 03:24:06;;;;;;;;;;;22.00;72.50;;;;;;5020499;28;20038;-73
2022/07/14 03:26:35;;;;;;;;;;;22.00;72.60;;;;;;5043350;28;19932;-74
2022/07/14 03:29:02;;;;;;;;;;;22.00;72.50;;;;;;5043956;28;19934;-73
2022/07/14 03:31:30;;;;;;;;;;;22.00;72.60;;;;;;5023510;28;20024;-72
2022/07/14 03:34:00;;;;;;;;;;;22.00;72.60;;;;;;5030710;28;20131;-73
2022/07/14 03:36:28;;;;;;;;;;;21.90;72.50;;;;;;5029176;28;20091;-74
2022/07/14 03:38:56;;;;;;;;;;;21.90;72.50;;;;;;5031192;28;20015;-73
2022/07/14 03:41:23;;;;;;;;;;;21.90;72.50;;;;;;5026257;28;19929;-73
2022/07/14 03:43:50;;;;;;;;;;;21.80;72.50;;;;;;5031400;28;19924;-73
2022/07/14 03:46:20;;;;;;;;;;;21.80;72.50;;;;;;5026179;28;20383;-73
2022/07/14 03:48:57;;;;;;;;;;;21.80;72.60;;;;;;5024115;28;20737;-73
2022/07/14 03:51:24;;;;;;;;;;;21.80;72.60;;;;;;5024946;28;19933;-73
2022/07/14 03:53:51;;;;;;;;;;;21.80;72.80;;;;;;5031171;28;19925;-73
2022/07/14 03:56:20;;;;;;;;;;;21.70;72.70;;;;;;5026726;28;19957;-73
2022/07/14 03:58:48;;;;;;;;;;;21.70;72.90;;;;;;5024556;28;20417;-73
2022/07/14 04:01:18;;;;;;;;;;;21.70;72.90;;;;;;5031300;28;19925;-73
2022/07/14 04:03:48;;;;;;;;;;;21.70;73.10;;;;;;5028276;28;19975;-72
2022/07/14 04:06:16;;;;;;;;;;;21.70;73.10;;;;;;5021756;28;20391;-73
2022/07/14 04:08:44;;;;;;;;;;;21.60;72.90;;;;;;5034018;28;19929;-73
2022/07/14 04:11:12;;;;;;;;;;;21.60;72.90;;;;;;5027290;28;20362;-73
2022/07/14 04:13:40;;;;;;;;;;;21.60;73.00;;;;;;5038856;28;19937;-74
2022/07/14 04:16:07;;;;;;;;;;;21.60;73.00;;;;;;5042299;28;19935;-73
2022/07/14 04:18:39;;;;;;;;;;;21.60;72.90;;;;;;5023117;28;19930;-74
2022/07/14 04:21:08;;;;;;;;;;;21.50;72.70;;;;;;5042099;28;20003;-74
2022/07/14 04:23:35;;;;;;;;;;;21.50;72.70;;;;;;5021063;28;20399;-74
2022/07/14 04:26:03;;;;;;;;;;;21.50;72.60;;;;;;5026892;28;19979;-74
2022/07/14 04:28:30;;;;;;;;;;;21.50;72.50;;;;;;5018643;28;19979;-73
2022/07/14 04:30:59;;;;;;;;;;;21.40;72.40;;;;;;5039703;28;19929;-74
2022/07/14 04:33:26;;;;;;;;;;;21.40;72.50;;;;;;5032828;28;19929;-74
2022/07/14 04:35:53;;;;;;;;;;;21.40;72.40;;;;;;5021833;28;20020;-74
2022/07/14 04:38:21;;;;;;;;;;;21.40;72.40;;;;;;5021883;28;20358;-74
2022/07/14 04:40:51;;;;;;;;;;;21.40;72.40;;;;;;5021737;28;19925;-74
2022/07/14 04:43:20;;;;;;;;;;;21.30;72.20;;;;;;5014552;28;20337;-73
2022/07/14 04:45:48;;;;;;;;;;;21.30;72.00;;;;;;5006209;28;19961;-73
2022/07/14 04:48:17;;;;;;;;;;;21.30;71.40;;;;;;5018171;28;19925;-75
2022/07/14 04:53:29;;;;;;;;;;;21.30;71.30;;;;;;5022229;28;19922;-73
2022/07/14 04:56:09;;;;;;;;;;;21.30;71.50;;;;;;5008686;28;20016;-73
2022/07/14 04:58:46;;;;;;;;;;;21.20;71.60;;;;;;5022998;28;20323;-73
2022/07/14 05:01:13;;;;;;;;;;;21.20;71.60;;;;;;5003537;28;19929;-75
2022/07/14 05:03:44;;;;;;;;;;;21.20;71.70;;;;;;5000913;28;20672;-76
2022/07/14 05:06:11;;;;;;;;;;;21.20;71.50;;;;;;5024223;28;20042;-78
2022/07/14 05:08:39;;;;;;;;;;;21.20;71.80;;;;;;5022069;28;20436;-75
2022/07/14 05:11:08;;;;;;;;;;;21.20;72.50;;;;;;5015904;28;19929;-75
2022/07/14 05:13:35;;;;;;;;;;;21.10;71.70;;;;;;5018953;28;19937;-75
2022/07/14 05:16:02;;;;;;;;;;;21.10;71.80;;;;;;5004199;28;19964;-74
2022/07/14 05:18:29;;;;;;;;;;;21.10;72.00;;;;;;5012079;28;19935;-74
2022/07/14 05:20:57;;;;;;;;;;;21.10;71.90;;;;;;5023714;28;19950;-73
2022/07/14 05:23:24;;;;;;;;;;;21.10;72.00;;;;;;5011107;28;19932;-73
2022/07/14 05:25:51;;;;;;;;;;;21.10;71.80;;;;;;5019600;28;20387;-73
2022/07/14 05:28:18;;;;;;;;;;;21.10;72.20;;;;;;5033934;28;19972;-75
2022/07/14 05:30:58;;;;;;;;;;;21.20;72.90;;;;;;5024936;28;19925;-73
2022/07/14 05:33:32;;;;;;;;;;;21.20;73.10;;;;;;5017078;28;19939;-73
2022/07/14 05:36:02;;;;;;;;;;;21.20;73.40;;;;;;5011350;28;21113;-73
2022/07/14 05:38:31;;;;;;;;;;;21.20;73.60;;;;;;5016906;28;20018;-74
2022/07/14 05:40:58;;;;;;;;;;;21.20;73.70;;;;;;5024732;28;20312;-73
2022/07/14 05:43:26;;;;;;;;;;;21.30;73.90;;;;;;5009421;28;20401;-73
2022/07/14 05:45:55;;;;;;;;;;;21.30;73.80;;;;;;5005240;28;20409;-73
2022/07/14 05:48:22;;;;;;;;;;;21.30;73.90;;;;;;5034101;28;20321;-71
2022/07/14 05:50:49;;;;;;;;;;;21.30;73.90;;;;;;5009234;28;20010;-72
2022/07/14 05:53:18;;;;;;;;;;;21.30;74.00;;;;;;5007399;28;19932;-71
2022/07/14 05:55:46;;;;;;;;;;;21.40;74.30;;;;;;4999851;28;19929;-70
2022/07/14 05:58:13;;;;;;;;;;;21.40;74.50;;;;;;5025845;28;20079;-71
2022/07/14 06:00:40;;;;;;;;;;;21.40;74.70;;;;;;5026564;28;19948;-72
2022/07/14 06:03:07;;;;;;;;;;;21.30;74.60;;;;;;5025464;28;19928;-71
2022/07/14 06:05:34;;;;;;;;;;;21.30;74.70;;;;;;5040949;28;19957;-71
2022/07/14 06:08:00;;;;;;;;;;;21.30;74.70;;;;;;5035921;28;19932;-71
2022/07/14 06:10:29;;;;;;;;;;;21.30;74.80;;;;;;5028595;28;19932;-72
2022/07/14 06:13:01;;;;;;;;;;;21.30;74.80;;;;;;5036909;28;19936;-72
2022/07/14 06:15:28;;;;;;;;;;;21.30;75.00;;;;;;5034944;28;19932;-72
2022/07/14 06:17:55;;;;;;;;;;;21.30;75.00;;;;;;5024100;28;19932;-72
2022/07/14 06:20:22;;;;;;;;;;;21.30;75.10;;;;;;5032952;28;20347;-72
2022/07/14 06:22:49;;;;;;;;;;;21.40;75.30;;;;;;5033544;28;19937;-72
2022/07/14 06:25:17;;;;;;;;;;;21.40;75.40;;;;;;5025290;28;19978;-72
2022/07/14 06:27:45;;;;;;;;;;;21.40;75.50;;;;;;5048079;28;20032;-72
2022/07/14 06:30:12;;;;;;;;;;;21.40;75.50;;;;;;5029104;28;19925;-71
2022/07/14 06:32:41;;;;;;;;;;;21.40;75.70;;;;;;5024715;28;19925;-72
2022/07/14 06:35:12;;;;;;;;;;;21.40;75.80;;;;;;5039626;28;19925;-72
2022/07/14 06:37:39;;;;;;;;;;;21.40;75.90;;;;;;5028381;28;20020;-74
2022/07/14 06:40:06;;;;;;;;;;;21.50;76.20;;;;;;5025925;28;19954;-73
2022/07/14 06:42:37;;;;;;;;;;;21.50;76.20;;;;;;5025542;28;19925;-73
2022/07/14 06:45:32;;;;;;;;;;;21.50;76.40;;;;;;5023731;28;19925;-73
2022/07/14 06:47:59;;;;;;;;;;;21.50;76.40;;;;;;5030269;28;19928;-74
2022/07/14 06:50:26;;;;;;;;;;;21.50;76.50;;;;;;5022520;28;19929;-73
2022/07/14 06:52:53;;;;;;;;;;;21.50;76.70;;;;;;5028154;28;19929;-73
2022/07/14 06:55:21;;;;;;;;;;;21.60;76.80;;;;;;5032435;28;19925;-73
2022/07/14 06:57:48;;;;;;;;;;;21.60;76.80;;;;;;5037346;28;20407;-73
2022/07/14 07:00:16;;;;;;;;;;;21.60;76.90;;;;;;5022143;28;19933;-73
2022/07/14 07:02:44;;;;;;;;;;;21.60;77.00;;;;;;5026468;28;20015;-73
2022/07/14 07:07:58;;;;;;;;;;;21.70;77.30;;;;;;5024394;28;20360;-73
2022/07/14 07:10:25;;;;;;;;;;;21.70;77.20;;;;;;5024454;28;20008;-73
2022/07/14 07:12:52;;;;;;;;;;;21.70;77.30;;;;;;5029645;28;19933;-73
2022/07/14 07:15:19;;;;;;;;;;;21.70;77.20;;;;;;5026530;28;19940;-73
2022/07/14 07:17:48;;;;;;;;;;;21.80;77.40;;;;;;5027022;28;19925;-72
2022/07/14 07:20:15;;;;;;;;;;;21.80;77.50;;;;;;5020087;28;19926;-73
2022/07/14 07:22:42;;;;;;;;;;;21.80;77.50;;;;;;5029734;28;19925;-73
2022/07/14 07:25:12;;;;;;;;;;;21.80;77.90;;;;;;5028954;28;19982;-74
2022/07/14 07:27:38;;;;;;;;;;;21.80;77.50;;;;;;5019320;28;20019;-73
2022/07/14 07:30:06;;;;;;;;;;;21.90;77.50;;;;;;5028332;28;20006;-73
2022/07/14 07:32:33;;;;;;;;;;;21.90;77.50;;;;;;5025947;28;20327;-73
2022/07/14 07:35:01;;;;;;;;;;;21.90;77.40;;;;;;5029221;28;20020;-73
2022/07/14 07:37:28;;;;;;;;;;;21.90;77.30;;;;;;5024084;28;19925;-73
2022/07/14 07:39:57;;;;;;;;;;;21.90;77.40;;;;;;5025881;28;19941;-73
2022/07/14 07:42:25;;;;;;;;;;;22.00;77.40;;;;;;5021731;28;19941;-73
2022/07/14 07:44:52;;;;;;;;;;;22.00;77.40;;;;;;5017961;28;19980;-73
2022/07/14 07:47:19;;;;;;;;;;;22.00;77.40;;;;;;5027238;28;19929;-73
2022/07/14 07:49:45;;;;;;;;;;;22.00;77.30;;;;;;5026766;28;20342;-73
2022/07/14 07:52:14;;;;;;;;;;;22.10;77.50;;;;;;5028258;28;19964;-73
2022/07/14 07:54:41;;;;;;;;;;;22.10;77.50;;;;;;5024446;28;20430;-73
2022/07/14 07:57:08;;;;;;;;;;;22.10;77.50;;;;;;5043011;28;20402;-73
2022/07/14 07:59:35;;;;;;;;;;;22.10;77.50;;;;;;5028748;28;22834;-73
2022/07/14 08:02:02;;;;;;;;;;;22.10;77.50;;;;;;5027610;28;19932;-73
2022/07/14 08:04:29;;;;;;;;;;;22.20;77.50;;;;;;5043748;28;19929;-73
2022/07/14 08:06:56;;;;;;;;;;;22.20;77.50;;;;;;5024927;28;19990;-73
2022/07/14 08:09:25;;;;;;;;;;;22.20;78.10;;;;;;5023794;28;19980;-73
2022/07/14 08:11:51;;;;;;;;;;;22.20;77.40;;;;;;5023234;28;19933;-73
2022/07/14 08:17:03;;;;;;;;;;;22.20;77.20;;;;;;5027060;28;20332;-73
2022/07/14 08:19:30;;;;;;;;;;;22.30;77.20;;;;;;5038627;28;20300;-73
2022/07/14 08:21:57;;;;;;;;;;;22.30;77.20;;;;;;5026504;28;19925;-73
2022/07/14 08:24:25;;;;;;;;;;;22.30;77.10;;;;;;5023667;28;20414;-73
2022/07/14 08:26:52;;;;;;;;;;;22.30;77.00;;;;;;5025293;28;19929;-73
2022/07/14 08:29:19;;;;;;;;;;;22.30;77.00;;;;;;5038329;28;19959;-73
2022/07/14 08:31:46;;;;;;;;;;;22.30;76.90;;;;;;5016900;28;19925;-73
2022/07/14 08:34:13;;;;;;;;;;;22.40;76.90;;;;;;5027285;28;19933;-73
2022/07/14 08:36:40;;;;;;;;;;;22.40;76.90;;;;;;5024709;28;19965;-73
2022/07/14 08:39:08;;;;;;;;;;;22.40;77.00;;;;;;5025220;28;19925;-73
2022/07/14 08:41:37;;;;;;;;;;;22.40;76.50;;;;;;5020885;28;19929;-73
2022/07/14 08:44:04;;;;;;;;;;;22.40;76.90;;;;;;5030451;28;19925;-74
2022/07/14 08:46:32;;;;;;;;;;;22.40;77.00;;;;;;5038106;28;19995;-73
2022/07/14 08:48:59;;;;;;;;;;;22.50;77.00;;;;;;5016398;28;19929;-73
2022/07/14 08:51:27;;;;;;;;;;;22.50;76.80;;;;;;5024897;28;19933;-73
2022/07/14 08:53:54;;;;;;;;;;;22.80;75.20;;;;;;5018894;28;20335;-73
2022/07/14 08:56:21;;;;;;;;;;;23.20;73.70;;;;;;5013410;28;19979;-74
2022/07/14 08:58:49;;;;;;;;;;;23.40;72.90;;;;;;5021275;28;19929;-74
2022/07/14 09:01:16;;;;;;;;;;;;;;;;;;5018510;28;19925;-73
2022/07/14 09:03:43;;;;;;;;;;;23.90;68.50;;;;;;5012434;28;19925;-73
2022/07/14 09:06:10;;;;;;;;;;;24.00;68.60;;;;;;5021669;28;19925;-74
2022/07/14 09:08:54;;;;;;;;;;;24.10;68.50;;;;;;5018783;28;20004;-74
2022/07/14 09:11:21;;;;;;;;;;;24.20;67.80;;;;;;5030156;28;20019;-73
2022/07/14 09:13:50;;;;;;;;;;;24.30;67.90;;;;;;5020109;28;19925;-73
2022/07/14 09:16:19;;;;;;;;;;;24.30;68.20;;;;;;5020965;28;19929;-73
2022/07/14 09:19:00;;;;;;;;;;;24.50;68.60;;;;;;5021281;28;20031;-73
2022/07/14 09:21:27;;;;;;;;;;;24.60;68.80;;;;;;5018993;28;20469;-73
2022/07/14 09:23:55;;;;;;;;;;;24.80;68.50;;;;;;5032573;28;20421;-73
2022/07/14 09:26:22;;;;;;;;;;;24.70;68.90;;;;;;5012022;28;19933;-72
2022/07/14 09:28:51;;;;;;;;;;;24.50;69.70;;;;;;5014670;28;20303;-73
2022/07/14 09:31:22;;;;;;;;;;;24.20;70.60;;;;;;5020618;28;19926;-73
2022/07/14 09:33:50;;;;;;;;;;;24.10;71.30;;;;;;5016820;28;20379;-73
2022/07/14 09:36:26;;;;;;;;;;;24.00;71.60;;;;;;5037866;28;19925;-73
2022/07/14 09:38:53;;;;;;;;;;;23.90;71.90;;;;;;5023866;28;19929;-73
2022/07/14 09:41:20;;;;;;;;;;;23.90;72.30;;;;;;5016870;28;20020;-73
2022/07/14 09:44:02;;;;;;;;;;;23.90;72.60;;;;;;5023848;28;20014;-73
2022/07/14 09:46:44;;;;;;;;;;;23.90;72.90;;;;;;5021804;28;19933;-73
2022/07/14 09:49:11;;;;;;;;;;;23.90;73.20;;;;;;5024342;28;20395;-74
2022/07/14 09:51:51;;;;;;;;;;;23.90;73.40;;;;;;5020830;28;19968;-74
2022/07/14 09:54:33;;;;;;;;;;;23.90;73.60;;;;;;5040644;28;19933;-73
2022/07/14 09:57:00;;;;;;;;;;;23.90;74.10;;;;;;4998204;28;20327;-73
2022/07/14 09:59:28;;;;;;;;;;;23.90;73.90;;;;;;5016501;28;19929;-74
2022/07/14 10:01:57;;;;;;;;;;;23.90;74.10;;;;;;5022665;28;20307;-74
2022/07/14 10:04:24;;;;;;;;;;;23.90;74.20;;;;;;5025095;28;20311;-73
2022/07/14 10:06:51;;;;;;;;;;;23.90;74.20;;;;;;5022551;28;19959;-73
2022/07/14 10:09:18;;;;;;;;;;;23.90;74.20;;;;;;5023576;28;19925;-73
2022/07/14 10:11:45;;;;;;;;;;;23.90;74.20;;;;;;5019101;28;19955;-74
2022/07/14 10:14:12;;;;;;;;;;;23.90;74.20;;;;;;5019344;28;19933;-74
2022/07/14 10:16:40;;;;;;;;;;;23.90;74.20;;;;;;5023554;28;19933;-74
2022/07/14 10:19:08;;;;;;;;;;;23.90;73.80;;;;;;5030101;28;19929;-73
2022/07/14 10:21:36;;;;;;;;;;;24.00;74.20;;;;;;5024913;28;19925;-74
2022/07/14 10:24:02;;;;;;;;;;;23.90;74.30;;;;;;5024472;28;19932;-73
2022/07/14 10:26:30;;;;;;;;;;;24.00;73.70;;;;;;5028310;28;20989;-74
2022/07/14 10:28:57;;;;;;;;;;;24.00;74.00;;;;;;5025562;28;19988;-74
2022/07/14 10:31:29;;;;;;;;;;;24.00;73.70;;;;;;5012640;28;20250;-74
2022/07/14 10:33:58;;;;;;;;;;;24.00;73.30;;;;;;5026319;28;19925;-74
2022/07/14 10:36:32;;;;;;;;;;;24.00;73.30;;;;;;5020532;28;20390;-73
2022/07/14 10:39:04;;;;;;;;;;;24.00;73.90;;;;;;5018773;28;19970;-73
2022/07/14 10:41:46;;;;;;;;;;;24.00;73.60;;;;;;5023872;28;19925;-73
2022/07/14 10:44:17;;;;;;;;;;;24.00;73.60;;;;;;5018173;28;19937;-73
2022/07/14 10:46:45;;;;;;;;;;;24.00;73.20;;;;;;5018421;28;19925;-74
2022/07/14 10:49:12;;;;;;;;;;;24.10;72.60;;;;;;5014524;28;20475;-73
2022/07/14 10:51:48;;;;;;;;;;;24.00;72.30;;;;;;5013591;28;20695;-74
2022/07/14 10:54:16;;;;;;;;;;;24.10;71.90;;;;;;5022393;28;19964;-73
2022/07/14 10:56:44;;;;;;;;;;;24.10;72.70;;;;;;5021999;28;19933;-74
2022/07/14 10:59:29;;;;;;;;;;;24.10;73.60;;;;;;5016789;28;19933;-74
2022/07/14 11:02:14;;;;;;;;;;;24.10;73.40;;;;;;5022603;28;20330;-73
2022/07/14 11:05:00;;;;;;;;;;;24.20;73.80;;;;;;5019980;28;20395;-73
2022/07/14 11:07:36;;;;;;;;;;;24.20;72.90;;;;;;5033555;28;20391;-73
2022/07/14 11:10:04;;;;;;;;;;;24.20;73.10;;;;;;5034711;28;20577;-73
2022/07/14 11:12:31;;;;;;;;;;;24.20;73.00;;;;;;5010788;28;19937;-74
2022/07/14 11:14:58;;;;;;;;;;;24.20;72.10;;;;;;5019581;28;19976;-74
2022/07/14 11:17:39;;;;;;;;;;;24.20;72.40;;;;;;5007528;28;20320;-74
2022/07/14 11:20:08;;;;;;;;;;;24.30;73.40;;;;;;5011697;28;19939;-75
2022/07/14 11:22:36;;;;;;;;;;;24.30;73.60;;;;;;5011602;28;20307;-74
2022/07/14 11:25:04;;;;;;;;;;;24.30;72.50;;;;;;5012934;28;19940;-74
2022/07/14 11:27:36;;;;;;;;;;;24.30;72.40;;;;;;5012049;28;19944;-73
2022/07/14 11:30:21;;;;;;;;;;;24.30;73.00;;;;;;5017577;28;20399;-73
2022/07/14 11:32:59;;;;;;;;;;;24.30;72.20;;;;;;5021950;28;20280;-73
2022/07/14 11:38:40;;;;;;;;;;;24.40;71.90;;;;;;4982315;28;19925;-73
2022/07/14 11:41:10;;;;;;;;;;;24.40;72.90;;;;;;5004196;28;19933;-74
2022/07/14 11:43:41;;;;;;;;;;;24.40;71.60;;;;;;5014205;28;19929;-75
2022/07/14 11:46:09;;;;;;;;;;;24.50;70.70;;;;;;5017677;28;22090;-73
2022/07/14 11:48:37;;;;;;;;;;;24.60;69.60;;;;;;5016941;28;19987;-73
2022/07/14 11:51:06;;;;;;;;;;;24.60;70.00;;;;;;5018130;28;19937;-73
2022/07/14 11:53:33;;;;;;;;;;;24.60;70.50;;;;;;5034753;28;20395;-73
2022/07/14 11:56:02;;;;;;;;;;;24.60;70.20;;;;;;5018810;28;19967;-73
2022/07/14 11:58:30;;;;;;;;;;;24.70;69.50;;;;;;5014167;28;19933;-74
2022/07/14 12:00:57;;;;;;;;;;;24.70;69.30;;;;;;5022227;28;19929;-73
2022/07/14 12:03:25;;;;;;;;;;;24.70;70.60;;;;;;5025271;28;19929;-73
2022/07/14 12:05:53;;;;;;;;;;;24.80;70.40;;;;;;5025335;28;20386;-74
2022/07/14 12:08:23;;;;;;;;;;;24.90;69.50;;;;;;5017217;28;19929;-73
2022/07/14 12:10:50;;;;;;;;;;;24.90;69.70;;;;;;5018735;28;20406;-74
2022/07/14 12:13:21;;;;;;;;;;;25.00;69.40;;;;;;5016139;28;20592;-73
2022/07/14 12:15:48;;;;;;;;;;;25.00;69.20;;;;;;5015342;28;19925;-73
2022/07/14 12:18:15;;;;;;;;;;;25.20;67.90;;;;;;5024003;28;20459;-73
2022/07/14 12:20:44;;;;;;;;;;;25.30;67.90;;;;;;5029218;28;19933;-74
2022/07/14 12:23:11;;;;;;;;;;;25.30;69.00;;;;;;5023313;28;20387;-74
2022/07/14 12:25:38;;;;;;;;;;;25.30;67.80;;;;;;5010837;28;19933;-74
2022/07/14 12:28:06;;;;;;;;;;;25.40;66.80;;;;;;5010568;28;20032;-73
2022/07/14 12:30:44;;;;;;;;;;;25.60;66.80;;;;;;5012998;28;19940;-74
2022/07/14 12:33:12;;;;;;;;;;;25.60;67.30;;;;;;5008836;28;20166;-75
2022/07/14 12:35:40;;;;;;;;;;;25.60;67.50;;;;;;5013915;28;19929;-75
2022/07/14 12:38:08;;;;;;;;;;;25.60;67.80;;;;;;5025546;28;20763;-74
2022/07/14 12:40:35;;;;;;;;;;;25.60;67.90;;;;;;5021926;28;20017;-74
2022/07/14 12:43:03;;;;;;;;;;;25.70;67.10;;;;;;5008955;28;20387;-73
2022/07/14 12:45:30;;;;;;;;;;;25.80;66.80;;;;;;5018634;28;19943;-73
2022/07/14 12:48:01;;;;;;;;;;;25.90;66.10;;;;;;5017806;28;19933;-73
2022/07/14 12:50:28;;;;;;;;;;;26.00;65.20;;;;;;5017043;28;20390;-73
2022/07/14 12:52:56;;;;;;;;;;;26.10;65.30;;;;;;5016512;28;19987;-73
2022/07/14 12:55:33;;;;;;;;;;;26.20;64.30;;;;;;5016686;28;19933;-73
2022/07/14 12:58:04;;;;;;;;;;;26.20;64.40;;;;;;5033453;28;19925;-74
2022/07/14 13:00:32;;;;;;;;;;;26.30;64.30;;;;;;5008986;28;19934;-73
2022/07/14 13:03:13;;;;;;;;;;;26.30;64.50;;;;;;5030054;28;19937;-73
2022/07/14 13:05:47;;;;;;;;;;;26.40;64.40;;;;;;5013262;28;19979;-73
2022/07/14 13:08:32;;;;;;;;;;;26.40;64.60;;;;;;5015888;28;19925;-74
2022/07/14 13:11:01;;;;;;;;;;;26.40;64.60;;;;;;5017822;28;19933;-73
2022/07/14 13:13:29;;;;;;;;;;;26.50;64.80;;;;;;5012445;28;19936;-73
2022/07/14 13:16:13;;;;;;;;;;;26.50;64.80;;;;;;5032890;28;19940;-73
2022/07/14 13:18:55;;;;;;;;;;;26.50;64.70;;;;;;5018907;28;19925;-73
2022/07/14 13:21:43;;;;;;;;;;;26.70;63.20;;;;;;5011209;28;19933;-73
2022/07/14 13:24:14;;;;;;;;;;;26.80;63.60;;;;;;5024164;28;19929;-73
2022/07/14 13:26:42;;;;;;;;;;;26.80;63.10;;;;;;5020325;28;19937;-73
2022/07/14 13:29:09;;;;;;;;;;;26.90;62.90;;;;;;5005234;28;20628;-73
2022/07/14 13:31:36;;;;;;;;;;;26.90;63.00;;;;;;5015756;28;19932;-74
2022/07/14 13:34:03;;;;;;;;;;;26.90;63.50;;;;;;5014106;28;21257;-74
2022/07/14 13:36:32;;;;;;;;;;;26.90;63.70;;;;;;5016780;28;19925;-73
2022/07/14 13:38:59;;;;;;;;;;;27.00;63.20;;;;;;5010101;28;19998;-73
2022/07/14 13:41:26;;;;;;;;;;;27.00;63.00;;;;;;5010531;28;20469;-73
2022/07/14 13:43:56;;;;;;;;;;;27.00;63.50;;;;;;5017530;28;19961;-73
2022/07/14 13:46:23;;;;;;;;;;;27.00;63.70;;;;;;5009895;28;19928;-73
2022/07/14 13:48:50;;;;;;;;;;;27.10;62.60;;;;;;5011104;28;19952;-74
2022/07/14 13:54:02;;;;;;;;;;;27.20;62.00;;;;;;5016455;28;19922;-73
2022/07/14 13:56:29;;;;;;;;;;;27.30;61.90;;;;;;5017511;28;20148;-73
2022/07/14 13:58:56;;;;;;;;;;;27.30;61.70;;;;;;5024014;28;19979;-73
2022/07/14 14:01:23;;;;;;;;;;;27.40;62.10;;;;;;5024845;28;20557;-74
2022/07/14 14:03:50;;;;;;;;;;;27.50;60.30;;;;;;5015385;28;19931;-73
2022/07/14 14:06:17;;;;;;;;;;;27.50;60.10;;;;;;5013472;28;19961;-73
2022/07/14 14:08:44;;;;;;;;;;;27.60;60.80;;;;;;5014415;28;20006;-74
2022/07/14 14:11:12;;;;;;;;;;;27.60;60.40;;;;;;5011110;28;20012;-74
2022/07/14 14:13:39;;;;;;;;;;;27.60;59.10;;;;;;5014048;28;19925;-74
2022/07/14 14:16:08;;;;;;;;;;;27.80;59.50;;;;;;5011824;28;19971;-74
2022/07/14 14:18:35;;;;;;;;;;;27.90;57.30;;;;;;5027780;28;19933;-74
2022/07/14 14:21:03;;;;;;;;;;;28.10;55.90;;;;;;5004982;28;20415;-74
2022/07/14 14:23:31;;;;;;;;;;;28.10;56.10;;;;;;5006795;28;19929;-74
2022/07/14 14:25:58;;;;;;;;;;;28.00;58.00;;;;;;5018942;28;20371;-74
2022/07/14 14:28:26;;;;;;;;;;;28.00;58.20;;;;;;5015650;28;19933;-74
2022/07/14 14:30:53;;;;;;;;;;;28.00;58.20;;;;;;5023520;28;19929;-76
2022/07/14 14:33:20;;;;;;;;;;;28.10;57.80;;;;;;5012158;28;19929;-76
2022/07/14 14:35:47;;;;;;;;;;;28.20;58.30;;;;;;5007023;28;20353;-73
2022/07/14 14:38:14;;;;;;;;;;;28.20;58.60;;;;;;5015360;28;20977;-75
2022/07/14 14:40:42;;;;;;;;;;;28.20;58.80;;;;;;5019526;28;20539;-74
2022/07/14 14:43:11;;;;;;;;;;;28.30;58.40;;;;;;5016273;28;19928;-76
2022/07/14 14:45:39;;;;;;;;;;;28.30;58.30;;;;;;5015591;28;20406;-75